sensor_id;sensor_type;location;lat;lon;timestamp;P1;durP1;ratioP1;P2;durP2;ratioP2
37297;SDS011;30517;51.932;4.278;2023-03-01T00:00:20;8.68;;;4.85;;
37297;SDS011;30517;51.932;4.278;2023-03-01T00:03:01;6.60;;;4.85;;
37297;SDS011;30517;51.932;4.278;2023-03-01T00:05:45;6.70;;;4.35;;
37297;SDS011;30517;51.932;4.278;2023-03-01T00:08:27;7.95;;;4.88;;
37297;SDS011;30517;51.932;4.278;2023-03-01T00:11:12;8.65;;;4.45;;
37297;SDS011;30517;51.932;4.278;2023-03-01T00:13:55;7.68;;;4.68;;
37297;SDS011;30517;51.932;4.278;2023-03-01T00:16:41;6.28;;;4.15;;
37297;SDS011;30517;51.932;4.278;2023-03-01T00:19:23;8.15;;;4.90;;
37297;SDS011;30517;51.932;4.278;2023-03-01T00:22:03;6.90;;;4.53;;
37297;SDS011;30517;51.932;4.278;2023-03-01T00:24:44;7.30;;;4.57;;
37297;SDS011;30517;51.932;4.278;2023-03-01T00:27:25;8.02;;;4.90;;
37297;SDS011;30517;51.932;4.278;2023-03-01T00:30:06;6.45;;;4.30;;
37297;SDS011;30517;51.932;4.278;2023-03-01T00:32:48;8.70;;;5.10;;
37297;SDS011;30517;51.932;4.278;2023-03-01T00:35:29;6.75;;;4.40;;
37297;SDS011;30517;51.932;4.278;2023-03-01T00:38:09;6.68;;;4.72;;
37297;SDS011;30517;51.932;4.278;2023-03-01T00:40:50;8.10;;;4.63;;
37297;SDS011;30517;51.932;4.278;2023-03-01T00:43:32;7.75;;;4.90;;
37297;SDS011;30517;51.932;4.278;2023-03-01T00:46:17;8.10;;;5.32;;
37297;SDS011;30517;51.932;4.278;2023-03-01T00:48:59;7.40;;;4.82;;
37297;SDS011;30517;51.932;4.278;2023-03-01T00:51:42;7.65;;;4.78;;
37297;SDS011;30517;51.932;4.278;2023-03-01T00:54:23;6.78;;;4.63;;
37297;SDS011;30517;51.932;4.278;2023-03-01T00:57:03;6.85;;;4.63;;
37297;SDS011;30517;51.932;4.278;2023-03-01T00:59:44;7.15;;;4.22;;
37297;SDS011;30517;51.932;4.278;2023-03-01T01:02:25;7.15;;;5.05;;
37297;SDS011;30517;51.932;4.278;2023-03-01T01:05:06;7.82;;;4.65;;
37297;SDS011;30517;51.932;4.278;2023-03-01T01:07:47;7.47;;;4.60;;
37297;SDS011;30517;51.932;4.278;2023-03-01T01:10:28;7.03;;;4.70;;
37297;SDS011;30517;51.932;4.278;2023-03-01T01:13:09;7.68;;;5.05;;
37297;SDS011;30517;51.932;4.278;2023-03-01T01:15:50;9.57;;;4.80;;
37297;SDS011;30517;51.932;4.278;2023-03-01T01:18:31;7.63;;;4.85;;
37297;SDS011;30517;51.932;4.278;2023-03-01T01:21:13;8.13;;;5.07;;
37297;SDS011;30517;51.932;4.278;2023-03-01T01:23:56;7.40;;;4.68;;
37297;SDS011;30517;51.932;4.278;2023-03-01T01:26:38;8.55;;;6.03;;
37297;SDS011;30517;51.932;4.278;2023-03-01T01:29:19;7.38;;;4.65;;
37297;SDS011;30517;51.932;4.278;2023-03-01T01:31:59;7.78;;;5.63;;
37297;SDS011;30517;51.932;4.278;2023-03-01T01:34:40;7.70;;;4.88;;
37297;SDS011;30517;51.932;4.278;2023-03-01T01:37:21;7.45;;;4.97;;
37297;SDS011;30517;51.932;4.278;2023-03-01T01:40:02;6.75;;;4.65;;
37297;SDS011;30517;51.932;4.278;2023-03-01T01:42:44;7.28;;;4.60;;
37297;SDS011;30517;51.932;4.278;2023-03-01T01:45:33;8.90;;;5.25;;
37297;SDS011;30517;51.932;4.278;2023-03-01T01:48:18;7.28;;;5.03;;
37297;SDS011;30517;51.932;4.278;2023-03-01T01:51:02;7.82;;;5.05;;
37297;SDS011;30517;51.932;4.278;2023-03-01T01:53:43;7.53;;;5.13;;
37297;SDS011;30517;51.932;4.278;2023-03-01T01:56:28;8.27;;;5.13;;
37297;SDS011;30517;51.932;4.278;2023-03-01T01:59:10;7.82;;;5.15;;
37297;SDS011;30517;51.932;4.278;2023-03-01T02:01:52;8.85;;;5.80;;
37297;SDS011;30517;51.932;4.278;2023-03-01T02:04:33;9.07;;;4.82;;
37297;SDS011;30517;51.932;4.278;2023-03-01T02:07:15;8.68;;;5.75;;
37297;SDS011;30517;51.932;4.278;2023-03-01T02:09:58;7.60;;;4.93;;
37297;SDS011;30517;51.932;4.278;2023-03-01T02:12:39;8.57;;;4.80;;
37297;SDS011;30517;51.932;4.278;2023-03-01T02:15:20;7.88;;;5.20;;
37297;SDS011;30517;51.932;4.278;2023-03-01T02:18:01;8.45;;;5.60;;
37297;SDS011;30517;51.932;4.278;2023-03-01T02:23:43;9.25;;;5.10;;
37297;SDS011;30517;51.932;4.278;2023-03-01T02:26:40;8.68;;;5.57;;
37297;SDS011;30517;51.932;4.278;2023-03-01T02:29:25;9.23;;;5.65;;
37297;SDS011;30517;51.932;4.278;2023-03-01T02:32:07;9.02;;;6.13;;
37297;SDS011;30517;51.932;4.278;2023-03-01T02:34:48;10.43;;;6.43;;
37297;SDS011;30517;51.932;4.278;2023-03-01T02:37:29;8.00;;;4.90;;
37297;SDS011;30517;51.932;4.278;2023-03-01T02:40:13;8.88;;;5.55;;
37297;SDS011;30517;51.932;4.278;2023-03-01T02:42:58;8.55;;;5.80;;
37297;SDS011;30517;51.932;4.278;2023-03-01T02:45:42;7.40;;;5.38;;
37297;SDS011;30517;51.932;4.278;2023-03-01T02:48:46;9.38;;;6.35;;
37297;SDS011;30517;51.932;4.278;2023-03-01T02:54:29;9.15;;;5.53;;
37297;SDS011;30517;51.932;4.278;2023-03-01T02:57:18;9.63;;;5.90;;
37297;SDS011;30517;51.932;4.278;2023-03-01T03:00:03;9.45;;;5.60;;
37297;SDS011;30517;51.932;4.278;2023-03-01T03:02:59;11.60;;;6.35;;
37297;SDS011;30517;51.932;4.278;2023-03-01T03:05:40;9.13;;;6.00;;
37297;SDS011;30517;51.932;4.278;2023-03-01T03:08:21;7.95;;;5.25;;
37297;SDS011;30517;51.932;4.278;2023-03-01T03:11:03;8.98;;;6.00;;
37297;SDS011;30517;51.932;4.278;2023-03-01T03:13:44;9.63;;;6.57;;
37297;SDS011;30517;51.932;4.278;2023-03-01T03:16:27;10.05;;;6.30;;
37297;SDS011;30517;51.932;4.278;2023-03-01T03:19:09;10.02;;;5.65;;
37297;SDS011;30517;51.932;4.278;2023-03-01T03:21:50;8.90;;;5.82;;
37297;SDS011;30517;51.932;4.278;2023-03-01T03:24:31;8.02;;;5.60;;
37297;SDS011;30517;51.932;4.278;2023-03-01T03:27:17;9.13;;;5.78;;
37297;SDS011;30517;51.932;4.278;2023-03-01T03:29:58;8.88;;;5.97;;
37297;SDS011;30517;51.932;4.278;2023-03-01T03:32:39;8.85;;;5.88;;
37297;SDS011;30517;51.932;4.278;2023-03-01T03:35:23;9.38;;;6.18;;
37297;SDS011;30517;51.932;4.278;2023-03-01T03:38:06;11.15;;;6.85;;
37297;SDS011;30517;51.932;4.278;2023-03-01T03:41:03;8.73;;;5.60;;
37297;SDS011;30517;51.932;4.278;2023-03-01T03:43:45;10.02;;;6.28;;
37297;SDS011;30517;51.932;4.278;2023-03-01T03:46:26;9.93;;;5.95;;
37297;SDS011;30517;51.932;4.278;2023-03-01T03:49:07;8.98;;;5.75;;
37297;SDS011;30517;51.932;4.278;2023-03-01T03:51:48;9.30;;;6.00;;
37297;SDS011;30517;51.932;4.278;2023-03-01T03:54:29;9.55;;;6.03;;
37297;SDS011;30517;51.932;4.278;2023-03-01T03:57:09;8.98;;;5.68;;
37297;SDS011;30517;51.932;4.278;2023-03-01T03:59:50;9.98;;;6.28;;
37297;SDS011;30517;51.932;4.278;2023-03-01T04:02:31;10.23;;;5.88;;
37297;SDS011;30517;51.932;4.278;2023-03-01T04:05:13;8.85;;;6.28;;
37297;SDS011;30517;51.932;4.278;2023-03-01T04:07:55;9.43;;;5.75;;
37297;SDS011;30517;51.932;4.278;2023-03-01T04:10:44;9.23;;;5.85;;
37297;SDS011;30517;51.932;4.278;2023-03-01T04:13:27;10.05;;;5.57;;
37297;SDS011;30517;51.932;4.278;2023-03-01T04:16:08;10.80;;;6.57;;
37297;SDS011;30517;51.932;4.278;2023-03-01T04:18:49;10.27;;;6.30;;
37297;SDS011;30517;51.932;4.278;2023-03-01T04:21:30;9.20;;;6.22;;
37297;SDS011;30517;51.932;4.278;2023-03-01T04:24:11;8.80;;;6.03;;
37297;SDS011;30517;51.932;4.278;2023-03-01T04:26:52;9.15;;;6.15;;
37297;SDS011;30517;51.932;4.278;2023-03-01T04:29:33;10.98;;;6.72;;
37297;SDS011;30517;51.932;4.278;2023-03-01T04:32:14;11.40;;;6.82;;
37297;SDS011;30517;51.932;4.278;2023-03-01T04:34:56;9.70;;;6.32;;
37297;SDS011;30517;51.932;4.278;2023-03-01T04:37:36;9.70;;;5.70;;
37297;SDS011;30517;51.932;4.278;2023-03-01T04:40:17;10.18;;;6.45;;
37297;SDS011;30517;51.932;4.278;2023-03-01T04:42:58;9.98;;;6.15;;
37297;SDS011;30517;51.932;4.278;2023-03-01T04:45:39;10.77;;;7.22;;
37297;SDS011;30517;51.932;4.278;2023-03-01T04:48:20;10.32;;;6.25;;
37297;SDS011;30517;51.932;4.278;2023-03-01T04:51:01;9.05;;;5.63;;
37297;SDS011;30517;51.932;4.278;2023-03-01T04:53:42;10.95;;;7.03;;
37297;SDS011;30517;51.932;4.278;2023-03-01T04:56:24;10.60;;;6.70;;
37297;SDS011;30517;51.932;4.278;2023-03-01T04:59:07;11.32;;;7.32;;
37297;SDS011;30517;51.932;4.278;2023-03-01T05:01:50;11.45;;;6.85;;
37297;SDS011;30517;51.932;4.278;2023-03-01T05:04:31;11.20;;;6.75;;
37297;SDS011;30517;51.932;4.278;2023-03-01T05:07:12;9.55;;;6.60;;
37297;SDS011;30517;51.932;4.278;2023-03-01T05:09:59;10.90;;;7.03;;
37297;SDS011;30517;51.932;4.278;2023-03-01T05:12:39;10.52;;;6.30;;
37297;SDS011;30517;51.932;4.278;2023-03-01T05:15:20;11.32;;;6.95;;
37297;SDS011;30517;51.932;4.278;2023-03-01T05:18:01;11.88;;;7.47;;
37297;SDS011;30517;51.932;4.278;2023-03-01T05:20:42;11.85;;;7.18;;
37297;SDS011;30517;51.932;4.278;2023-03-01T05:23:24;10.23;;;6.85;;
37297;SDS011;30517;51.932;4.278;2023-03-01T05:26:06;12.50;;;7.40;;
37297;SDS011;30517;51.932;4.278;2023-03-01T05:28:47;12.15;;;7.53;;
37297;SDS011;30517;51.932;4.278;2023-03-01T05:31:28;12.23;;;7.82;;
37297;SDS011;30517;51.932;4.278;2023-03-01T05:34:10;9.50;;;6.72;;
37297;SDS011;30517;51.932;4.278;2023-03-01T05:36:53;10.52;;;7.13;;
37297;SDS011;30517;51.932;4.278;2023-03-01T05:39:34;11.50;;;7.03;;
37297;SDS011;30517;51.932;4.278;2023-03-01T05:42:15;12.02;;;7.28;;
37297;SDS011;30517;51.932;4.278;2023-03-01T05:44:56;10.10;;;6.40;;
37297;SDS011;30517;51.932;4.278;2023-03-01T05:47:38;11.60;;;6.40;;
37297;SDS011;30517;51.932;4.278;2023-03-01T05:50:27;11.45;;;7.03;;
37297;SDS011;30517;51.932;4.278;2023-03-01T05:56:03;10.18;;;7.30;;
37297;SDS011;30517;51.932;4.278;2023-03-01T05:58:44;10.80;;;6.88;;
37297;SDS011;30517;51.932;4.278;2023-03-01T06:01:25;9.75;;;6.28;;
37297;SDS011;30517;51.932;4.278;2023-03-01T06:04:06;9.77;;;6.80;;
37297;SDS011;30517;51.932;4.278;2023-03-01T06:06:47;9.00;;;6.00;;
37297;SDS011;30517;51.932;4.278;2023-03-01T06:09:27;10.75;;;7.40;;
37297;SDS011;30517;51.932;4.278;2023-03-01T06:12:08;10.38;;;6.78;;
37297;SDS011;30517;51.932;4.278;2023-03-01T06:14:49;10.18;;;6.13;;
37297;SDS011;30517;51.932;4.278;2023-03-01T06:17:30;10.02;;;6.40;;
37297;SDS011;30517;51.932;4.278;2023-03-01T06:20:18;9.18;;;5.78;;
37297;SDS011;30517;51.932;4.278;2023-03-01T06:23:01;8.40;;;5.40;;
37297;SDS011;30517;51.932;4.278;2023-03-01T06:25:41;10.80;;;6.55;;
37297;SDS011;30517;51.932;4.278;2023-03-01T06:28:22;9.55;;;6.50;;
37297;SDS011;30517;51.932;4.278;2023-03-01T06:31:03;11.88;;;7.00;;
37297;SDS011;30517;51.932;4.278;2023-03-01T06:33:44;9.35;;;5.72;;
37297;SDS011;30517;51.932;4.278;2023-03-01T06:36:25;10.98;;;7.07;;
37297;SDS011;30517;51.932;4.278;2023-03-01T06:39:06;9.88;;;6.05;;
37297;SDS011;30517;51.932;4.278;2023-03-01T06:41:47;10.13;;;5.72;;
37297;SDS011;30517;51.932;4.278;2023-03-01T06:44:28;9.02;;;5.88;;
37297;SDS011;30517;51.932;4.278;2023-03-01T06:47:09;9.70;;;6.32;;
37297;SDS011;30517;51.932;4.278;2023-03-01T06:49:49;8.45;;;6.05;;
37297;SDS011;30517;51.932;4.278;2023-03-01T06:52:30;8.50;;;5.28;;
37297;SDS011;30517;51.932;4.278;2023-03-01T06:55:12;10.50;;;6.47;;
37297;SDS011;30517;51.932;4.278;2023-03-01T06:57:57;9.80;;;6.40;;
37297;SDS011;30517;51.932;4.278;2023-03-01T07:00:39;10.05;;;7.10;;
37297;SDS011;30517;51.932;4.278;2023-03-01T07:03:20;9.77;;;6.10;;
37297;SDS011;30517;51.932;4.278;2023-03-01T07:06:02;8.98;;;5.93;;
37297;SDS011;30517;51.932;4.278;2023-03-01T07:08:43;9.10;;;5.60;;
37297;SDS011;30517;51.932;4.278;2023-03-01T07:11:24;10.32;;;5.85;;
37297;SDS011;30517;51.932;4.278;2023-03-01T07:14:05;8.88;;;5.72;;
37297;SDS011;30517;51.932;4.278;2023-03-01T07:16:46;9.48;;;6.22;;
37297;SDS011;30517;51.932;4.278;2023-03-01T07:19:27;11.65;;;6.82;;
37297;SDS011;30517;51.932;4.278;2023-03-01T07:22:09;8.57;;;6.20;;
37297;SDS011;30517;51.932;4.278;2023-03-01T07:24:49;10.27;;;6.38;;
37297;SDS011;30517;51.932;4.278;2023-03-01T07:27:30;9.60;;;6.13;;
37297;SDS011;30517;51.932;4.278;2023-03-01T07:30:11;9.80;;;6.03;;
37297;SDS011;30517;51.932;4.278;2023-03-01T07:32:52;8.32;;;5.65;;
37297;SDS011;30517;51.932;4.278;2023-03-01T07:35:33;8.98;;;5.57;;
37297;SDS011;30517;51.932;4.278;2023-03-01T07:38:14;9.50;;;6.03;;
37297;SDS011;30517;51.932;4.278;2023-03-01T07:40:57;8.63;;;5.45;;
37297;SDS011;30517;51.932;4.278;2023-03-01T07:43:43;9.27;;;5.95;;
37297;SDS011;30517;51.932;4.278;2023-03-01T07:46:24;9.00;;;5.75;;
37297;SDS011;30517;51.932;4.278;2023-03-01T07:49:04;10.20;;;6.10;;
37297;SDS011;30517;51.932;4.278;2023-03-01T07:51:45;9.82;;;6.32;;
37297;SDS011;30517;51.932;4.278;2023-03-01T07:54:26;9.57;;;6.53;;
37297;SDS011;30517;51.932;4.278;2023-03-01T07:57:07;9.18;;;6.32;;
37297;SDS011;30517;51.932;4.278;2023-03-01T07:59:48;7.68;;;5.38;;
37297;SDS011;30517;51.932;4.278;2023-03-01T08:02:28;10.10;;;6.72;;
37297;SDS011;30517;51.932;4.278;2023-03-01T08:05:09;8.85;;;5.28;;
37297;SDS011;30517;51.932;4.278;2023-03-01T08:07:50;9.95;;;5.75;;
37297;SDS011;30517;51.932;4.278;2023-03-01T08:10:31;8.93;;;6.13;;
37297;SDS011;30517;51.932;4.278;2023-03-01T08:13:12;9.00;;;5.32;;
37297;SDS011;30517;51.932;4.278;2023-03-01T08:15:53;8.85;;;5.95;;
37297;SDS011;30517;51.932;4.278;2023-03-01T08:18:34;9.20;;;5.95;;
37297;SDS011;30517;51.932;4.278;2023-03-01T08:21:15;8.98;;;5.95;;
37297;SDS011;30517;51.932;4.278;2023-03-01T08:23:57;11.70;;;6.45;;
37297;SDS011;30517;51.932;4.278;2023-03-01T08:26:38;8.27;;;5.60;;
37297;SDS011;30517;51.932;4.278;2023-03-01T08:29:19;9.50;;;6.38;;
37297;SDS011;30517;51.932;4.278;2023-03-01T08:32:00;8.93;;;5.55;;
37297;SDS011;30517;51.932;4.278;2023-03-01T08:34:41;9.13;;;6.15;;
37297;SDS011;30517;51.932;4.278;2023-03-01T08:37:22;10.50;;;6.38;;
37297;SDS011;30517;51.932;4.278;2023-03-01T08:40:03;11.00;;;6.28;;
37297;SDS011;30517;51.932;4.278;2023-03-01T08:42:47;9.90;;;6.60;;
37297;SDS011;30517;51.932;4.278;2023-03-01T08:45:27;10.73;;;7.28;;
37297;SDS011;30517;51.932;4.278;2023-03-01T08:48:08;9.48;;;6.32;;
37297;SDS011;30517;51.932;4.278;2023-03-01T08:50:49;9.68;;;6.90;;
37297;SDS011;30517;51.932;4.278;2023-03-01T08:53:30;8.45;;;5.95;;
37297;SDS011;30517;51.932;4.278;2023-03-01T08:56:11;9.15;;;5.60;;
37297;SDS011;30517;51.932;4.278;2023-03-01T08:58:52;10.18;;;6.28;;
37297;SDS011;30517;51.932;4.278;2023-03-01T09:01:33;9.82;;;6.50;;
37297;SDS011;30517;51.932;4.278;2023-03-01T09:04:14;10.63;;;7.10;;
37297;SDS011;30517;51.932;4.278;2023-03-01T09:06:56;9.82;;;6.60;;
37297;SDS011;30517;51.932;4.278;2023-03-01T09:09:37;13.07;;;7.60;;
37297;SDS011;30517;51.932;4.278;2023-03-01T09:12:18;9.32;;;6.95;;
37297;SDS011;30517;51.932;4.278;2023-03-01T09:14:58;9.73;;;6.63;;
37297;SDS011;30517;51.932;4.278;2023-03-01T09:17:39;9.68;;;6.95;;
37297;SDS011;30517;51.932;4.278;2023-03-01T09:20:20;11.32;;;6.88;;
37297;SDS011;30517;51.932;4.278;2023-03-01T09:23:01;10.70;;;6.70;;
37297;SDS011;30517;51.932;4.278;2023-03-01T09:25:42;8.52;;;5.68;;
37297;SDS011;30517;51.932;4.278;2023-03-01T09:28:22;9.82;;;6.78;;
37297;SDS011;30517;51.932;4.278;2023-03-01T09:31:04;8.77;;;6.57;;
37297;SDS011;30517;51.932;4.278;2023-03-01T09:33:46;10.55;;;6.80;;
37297;SDS011;30517;51.932;4.278;2023-03-01T09:36:28;11.75;;;7.72;;
37297;SDS011;30517;51.932;4.278;2023-03-01T09:39:09;11.20;;;6.70;;
37297;SDS011;30517;51.932;4.278;2023-03-01T09:41:55;10.07;;;6.15;;
37297;SDS011;30517;51.932;4.278;2023-03-01T09:44:46;11.27;;;6.95;;
37297;SDS011;30517;51.932;4.278;2023-03-01T09:47:32;11.68;;;7.35;;
37297;SDS011;30517;51.932;4.278;2023-03-01T09:50:16;10.55;;;6.80;;
37297;SDS011;30517;51.932;4.278;2023-03-01T09:53:02;10.18;;;6.78;;
37297;SDS011;30517;51.932;4.278;2023-03-01T09:56:00;10.32;;;6.40;;
37297;SDS011;30517;51.932;4.278;2023-03-01T09:58:51;10.90;;;6.85;;
37297;SDS011;30517;51.932;4.278;2023-03-01T10:04:47;8.43;;;5.97;;
37297;SDS011;30517;51.932;4.278;2023-03-01T10:13:20;10.45;;;6.28;;
37297;SDS011;30517;51.932;4.278;2023-03-01T10:16:12;9.32;;;6.00;;
37297;SDS011;30517;51.932;4.278;2023-03-01T10:19:00;10.52;;;6.55;;
37297;SDS011;30517;51.932;4.278;2023-03-01T10:21:44;9.25;;;6.05;;
37297;SDS011;30517;51.932;4.278;2023-03-01T10:24:26;10.30;;;6.82;;
37297;SDS011;30517;51.932;4.278;2023-03-01T10:27:17;9.75;;;6.35;;
37297;SDS011;30517;51.932;4.278;2023-03-01T10:30:12;9.23;;;5.70;;
37297;SDS011;30517;51.932;4.278;2023-03-01T10:32:59;9.02;;;5.43;;
37297;SDS011;30517;51.932;4.278;2023-03-01T10:35:41;9.50;;;6.20;;
37297;SDS011;30517;51.932;4.278;2023-03-01T10:38:21;10.18;;;6.28;;
37297;SDS011;30517;51.932;4.278;2023-03-01T10:41:06;10.18;;;6.00;;
37297;SDS011;30517;51.932;4.278;2023-03-01T10:43:48;8.25;;;5.43;;
37297;SDS011;30517;51.932;4.278;2023-03-01T10:46:32;8.05;;;5.78;;
37297;SDS011;30517;51.932;4.278;2023-03-01T10:49:16;10.43;;;6.15;;
37297;SDS011;30517;51.932;4.278;2023-03-01T10:51:58;8.18;;;5.15;;
37297;SDS011;30517;51.932;4.278;2023-03-01T10:55:44;9.75;;;5.72;;
37297;SDS011;30517;51.932;4.278;2023-03-01T11:01:03;7.32;;;4.55;;
37297;SDS011;30517;51.932;4.278;2023-03-01T11:03:54;8.98;;;5.10;;
37297;SDS011;30517;51.932;4.278;2023-03-01T11:09:38;8.15;;;5.30;;
37297;SDS011;30517;51.932;4.278;2023-03-01T11:12:19;9.82;;;5.68;;
37297;SDS011;30517;51.932;4.278;2023-03-01T11:15:01;8.55;;;5.20;;
37297;SDS011;30517;51.932;4.278;2023-03-01T11:17:43;7.85;;;5.10;;
37297;SDS011;30517;51.932;4.278;2023-03-01T11:20:26;7.95;;;5.18;;
37297;SDS011;30517;51.932;4.278;2023-03-01T11:23:12;8.70;;;5.15;;
37297;SDS011;30517;51.932;4.278;2023-03-01T11:26:05;9.35;;;4.90;;
37297;SDS011;30517;51.932;4.278;2023-03-01T11:28:50;8.40;;;4.72;;
37297;SDS011;30517;51.932;4.278;2023-03-01T11:31:36;8.77;;;4.90;;
37297;SDS011;30517;51.932;4.278;2023-03-01T11:34:19;7.28;;;4.97;;
37297;SDS011;30517;51.932;4.278;2023-03-01T11:37:32;7.35;;;4.45;;
37297;SDS011;30517;51.932;4.278;2023-03-01T11:40:45;6.68;;;4.00;;
37297;SDS011;30517;51.932;4.278;2023-03-01T11:50:24;10.80;;;5.20;;
37297;SDS011;30517;51.932;4.278;2023-03-01T12:02:10;8.57;;;4.90;;
37297;SDS011;30517;51.932;4.278;2023-03-01T12:13:55;8.55;;;5.47;;
37297;SDS011;30517;51.932;4.278;2023-03-01T12:22:52;7.97;;;4.75;;
37297;SDS011;30517;51.932;4.278;2023-03-01T12:28:57;8.07;;;5.40;;
37297;SDS011;30517;51.932;4.278;2023-03-01T12:41:01;8.15;;;5.00;;
37297;SDS011;30517;51.932;4.278;2023-03-01T12:49:48;10.05;;;5.95;;
37297;SDS011;30517;51.932;4.278;2023-03-01T12:52:44;9.25;;;5.97;;
37297;SDS011;30517;51.932;4.278;2023-03-01T12:58:23;12.20;;;5.20;;
37297;SDS011;30517;51.932;4.278;2023-03-01T13:10:33;10.30;;;6.00;;
37297;SDS011;30517;51.932;4.278;2023-03-01T13:13:23;10.52;;;5.57;;
37297;SDS011;30517;51.932;4.278;2023-03-01T13:16:40;10.70;;;5.75;;
37297;SDS011;30517;51.932;4.278;2023-03-01T13:19:19;9.10;;;5.28;;
37297;SDS011;30517;51.932;4.278;2023-03-01T13:22:24;8.98;;;6.00;;
37297;SDS011;30517;51.932;4.278;2023-03-01T13:25:15;9.10;;;5.60;;
37297;SDS011;30517;51.932;4.278;2023-03-01T13:34:00;9.77;;;6.05;;
37297;SDS011;30517;51.932;4.278;2023-03-01T13:36:47;9.95;;;5.75;;
37297;SDS011;30517;51.932;4.278;2023-03-01T13:39:30;10.00;;;6.25;;
37297;SDS011;30517;51.932;4.278;2023-03-01T13:48:21;10.85;;;6.30;;
37297;SDS011;30517;51.932;4.278;2023-03-01T13:51:07;9.73;;;6.10;;
37297;SDS011;30517;51.932;4.278;2023-03-01T13:53:50;11.00;;;6.00;;
37297;SDS011;30517;51.932;4.278;2023-03-01T13:56:36;10.52;;;5.72;;
37297;SDS011;30517;51.932;4.278;2023-03-01T13:59:19;9.27;;;5.47;;
37297;SDS011;30517;51.932;4.278;2023-03-01T14:02:02;9.80;;;6.20;;
37297;SDS011;30517;51.932;4.278;2023-03-01T14:04:42;9.85;;;5.80;;
37297;SDS011;30517;51.932;4.278;2023-03-01T14:07:24;9.73;;;5.88;;
37297;SDS011;30517;51.932;4.278;2023-03-01T14:10:05;9.07;;;5.78;;
37297;SDS011;30517;51.932;4.278;2023-03-01T14:12:50;11.23;;;5.35;;
37297;SDS011;30517;51.932;4.278;2023-03-01T14:15:39;9.25;;;5.43;;
37297;SDS011;30517;51.932;4.278;2023-03-01T14:19:23;9.63;;;6.10;;
37297;SDS011;30517;51.932;4.278;2023-03-01T14:21:43;8.95;;;5.03;;
37297;SDS011;30517;51.932;4.278;2023-03-01T14:24:24;8.70;;;5.68;;
37297;SDS011;30517;51.932;4.278;2023-03-01T14:27:11;8.85;;;5.10;;
37297;SDS011;30517;51.932;4.278;2023-03-01T14:29:57;8.63;;;5.53;;
37297;SDS011;30517;51.932;4.278;2023-03-01T14:32:40;9.85;;;5.20;;
37297;SDS011;30517;51.932;4.278;2023-03-01T14:35:22;9.85;;;5.55;;
37297;SDS011;30517;51.932;4.278;2023-03-01T14:38:05;9.27;;;5.63;;
37297;SDS011;30517;51.932;4.278;2023-03-01T14:40:46;8.52;;;5.05;;
37297;SDS011;30517;51.932;4.278;2023-03-01T14:43:31;9.52;;;5.53;;
37297;SDS011;30517;51.932;4.278;2023-03-01T14:49:09;9.57;;;5.85;;
37297;SDS011;30517;51.932;4.278;2023-03-01T14:51:52;9.07;;;5.03;;
37297;SDS011;30517;51.932;4.278;2023-03-01T14:54:50;9.40;;;5.65;;
37297;SDS011;30517;51.932;4.278;2023-03-01T14:57:33;8.40;;;5.28;;
37297;SDS011;30517;51.932;4.278;2023-03-01T15:00:16;8.23;;;4.80;;
37297;SDS011;30517;51.932;4.278;2023-03-01T15:03:01;6.32;;;3.72;;
37297;SDS011;30517;51.932;4.278;2023-03-01T15:05:53;7.63;;;5.10;;
37297;SDS011;30517;51.932;4.278;2023-03-01T15:08:34;8.88;;;5.10;;
37297;SDS011;30517;51.932;4.278;2023-03-01T15:11:22;10.27;;;4.85;;
37297;SDS011;30517;51.932;4.278;2023-03-01T15:14:26;10.18;;;5.15;;
37297;SDS011;30517;51.932;4.278;2023-03-01T15:17:42;7.78;;;5.07;;
37297;SDS011;30517;51.932;4.278;2023-03-01T15:20:18;7.13;;;4.30;;
37297;SDS011;30517;51.932;4.278;2023-03-01T15:23:05;7.43;;;4.15;;
37297;SDS011;30517;51.932;4.278;2023-03-01T15:25:55;8.27;;;4.95;;
37297;SDS011;30517;51.932;4.278;2023-03-01T15:28:39;6.38;;;3.88;;
37297;SDS011;30517;51.932;4.278;2023-03-01T15:31:24;8.45;;;5.00;;
37297;SDS011;30517;51.932;4.278;2023-03-01T15:34:24;7.25;;;4.50;;
37297;SDS011;30517;51.932;4.278;2023-03-01T15:40:25;8.80;;;4.72;;
37297;SDS011;30517;51.932;4.278;2023-03-01T15:43:37;7.15;;;4.50;;
37297;SDS011;30517;51.932;4.278;2023-03-01T15:46:33;7.03;;;4.40;;
37297;SDS011;30517;51.932;4.278;2023-03-01T15:49:37;8.80;;;4.85;;
37297;SDS011;30517;51.932;4.278;2023-03-01T15:52:23;9.50;;;5.28;;
37297;SDS011;30517;51.932;4.278;2023-03-01T15:55:19;7.68;;;4.80;;
37297;SDS011;30517;51.932;4.278;2023-03-01T15:58:10;7.43;;;4.55;;
37297;SDS011;30517;51.932;4.278;2023-03-01T16:00:54;6.70;;;4.55;;
37297;SDS011;30517;51.932;4.278;2023-03-01T16:03:38;7.80;;;4.20;;
37297;SDS011;30517;51.932;4.278;2023-03-01T16:06:19;6.38;;;4.43;;
37297;SDS011;30517;51.932;4.278;2023-03-01T16:09:00;6.63;;;3.90;;
37297;SDS011;30517;51.932;4.278;2023-03-01T16:11:42;7.65;;;4.45;;
37297;SDS011;30517;51.932;4.278;2023-03-01T16:14:23;8.85;;;4.03;;
37297;SDS011;30517;51.932;4.278;2023-03-01T16:17:04;6.72;;;4.03;;
37297;SDS011;30517;51.932;4.278;2023-03-01T16:19:45;6.75;;;4.28;;
37297;SDS011;30517;51.932;4.278;2023-03-01T16:22:26;7.32;;;4.40;;
37297;SDS011;30517;51.932;4.278;2023-03-01T16:25:08;6.38;;;4.15;;
37297;SDS011;30517;51.932;4.278;2023-03-01T16:27:50;7.07;;;4.25;;
37297;SDS011;30517;51.932;4.278;2023-03-01T16:30:31;6.57;;;4.07;;
37297;SDS011;30517;51.932;4.278;2023-03-01T16:33:13;7.03;;;4.53;;
37297;SDS011;30517;51.932;4.278;2023-03-01T16:35:54;6.55;;;3.78;;
37297;SDS011;30517;51.932;4.278;2023-03-01T16:38:35;6.00;;;3.47;;
37297;SDS011;30517;51.932;4.278;2023-03-01T16:41:17;6.25;;;3.42;;
37297;SDS011;30517;51.932;4.278;2023-03-01T16:44:01;6.95;;;3.90;;
37297;SDS011;30517;51.932;4.278;2023-03-01T16:46:42;7.32;;;3.90;;
37297;SDS011;30517;51.932;4.278;2023-03-01T16:49:23;6.65;;;4.30;;
37297;SDS011;30517;51.932;4.278;2023-03-01T16:52:04;7.57;;;3.92;;
37297;SDS011;30517;51.932;4.278;2023-03-01T16:54:44;6.45;;;3.58;;
37297;SDS011;30517;51.932;4.278;2023-03-01T16:57:25;7.18;;;4.25;;
37297;SDS011;30517;51.932;4.278;2023-03-01T17:00:07;6.53;;;3.88;;
37297;SDS011;30517;51.932;4.278;2023-03-01T17:02:53;6.38;;;3.83;;
37297;SDS011;30517;51.932;4.278;2023-03-01T17:05:34;7.15;;;4.20;;
37297;SDS011;30517;51.932;4.278;2023-03-01T17:08:15;6.20;;;3.80;;
37297;SDS011;30517;51.932;4.278;2023-03-01T17:11:01;6.00;;;3.60;;
37297;SDS011;30517;51.932;4.278;2023-03-01T17:13:50;6.88;;;3.90;;
37297;SDS011;30517;51.932;4.278;2023-03-01T17:16:32;7.20;;;3.53;;
37297;SDS011;30517;51.932;4.278;2023-03-01T17:19:12;5.72;;;3.38;;
37297;SDS011;30517;51.932;4.278;2023-03-01T17:21:57;6.82;;;4.00;;
37297;SDS011;30517;51.932;4.278;2023-03-01T17:24:40;6.90;;;3.80;;
37297;SDS011;30517;51.932;4.278;2023-03-01T17:27:21;7.32;;;4.35;;
37297;SDS011;30517;51.932;4.278;2023-03-01T17:30:03;7.05;;;4.00;;
37297;SDS011;30517;51.932;4.278;2023-03-01T17:32:44;7.57;;;3.70;;
37297;SDS011;30517;51.932;4.278;2023-03-01T17:35:25;6.60;;;4.05;;
37297;SDS011;30517;51.932;4.278;2023-03-01T17:38:06;5.80;;;3.80;;
37297;SDS011;30517;51.932;4.278;2023-03-01T17:40:47;7.05;;;4.22;;
37297;SDS011;30517;51.932;4.278;2023-03-01T17:43:28;6.18;;;3.80;;
37297;SDS011;30517;51.932;4.278;2023-03-01T17:46:10;6.03;;;3.13;;
37297;SDS011;30517;51.932;4.278;2023-03-01T17:48:51;7.40;;;3.78;;
37297;SDS011;30517;51.932;4.278;2023-03-01T17:51:32;6.80;;;4.38;;
37297;SDS011;30517;51.932;4.278;2023-03-01T17:54:12;7.35;;;4.07;;
37297;SDS011;30517;51.932;4.278;2023-03-01T17:56:53;6.00;;;3.58;;
37297;SDS011;30517;51.932;4.278;2023-03-01T17:59:35;7.07;;;4.35;;
37297;SDS011;30517;51.932;4.278;2023-03-01T18:02:16;5.97;;;3.25;;
37297;SDS011;30517;51.932;4.278;2023-03-01T18:04:59;5.07;;;3.03;;
37297;SDS011;30517;51.932;4.278;2023-03-01T18:07:40;6.45;;;3.95;;